Time;durP1;ratioP1;P1;durP2;ratioP2;P2;SDS_P1;SDS_P2;PMS_P1;PMS_P2;Temp;Humidity;BMP_temperature;BMP_pressure;BME280_temperature;BME280_humidity;BME280_pressure;Samples;Min_cycle;Max_cycle;Signal;HPM_P1;HPM_P2
2022/06/16 00:02:14;;;;;;;4.60;4.30;;;19.00;99.90;;;;;;5004655;28;20179;-90
2022/06/16 00:04:46;;;;;;;4.83;4.53;;;19.10;99.90;;;;;;4987437;28;20175;-96
2022/06/16 00:07:13;;;;;;;4.87;4.47;;;19.10;99.90;;;;;;4969550;28;20189;-93
2022/06/16 00:09:39;;;;;;;6.63;4.80;;;18.90;99.90;;;;;;4974971;28;20182;-88
2022/06/16 00:12:05;;;;;;;7.17;4.93;;;19.20;99.90;;;;;;4990323;28;20206;-92
2022/06/16 00:14:31;;;;;;;5.10;4.70;;;19.00;99.90;;;;;;5007294;28;20174;-93
2022/06/16 00:16:57;;;;;;;5.90;5.47;;;18.90;99.90;;;;;;5073101;23;20245;-93
2022/06/16 00:19:22;;;;;;;4.90;4.60;;;18.90;99.90;;;;;;4991933;28;20216;-96
2022/06/16 00:21:53;;;;;;;4.93;4.63;;;18.90;99.90;;;;;;5010131;28;20185;-96
2022/06/16 00:24:20;;;;;;;5.67;5.20;;;18.90;99.90;;;;;;4976819;28;20234;-93
2022/06/16 00:26:47;;;;;;;5.50;5.00;;;19.00;99.90;;;;;;4991253;28;20265;-92
2022/06/16 00:29:13;;;;;;;5.63;5.17;;;19.00;99.90;;;;;;4991355;28;20193;-96
2022/06/16 00:31:40;;;;;;;5.07;4.63;;;18.90;99.90;;;;;;5001914;28;20177;-92
2022/06/16 00:34:07;;;;;;;5.47;5.13;;;18.80;99.90;;;;;;5016278;28;20226;-91
2022/06/16 00:36:35;;;;;;;5.47;4.93;;;18.80;99.90;;;;;;4998817;28;20188;-91
2022/06/16 00:39:01;;;;;;;5.47;4.83;;;18.80;99.90;;;;;;5013502;28;20221;-92
2022/06/16 00:41:27;;;;;;;5.17;4.73;;;18.80;99.90;;;;;;5008979;28;20170;-95
2022/06/16 00:43:52;;;;;;;5.67;5.10;;;18.80;99.90;;;;;;5006781;28;20185;-94
2022/06/16 00:46:25;;;;;;;5.60;5.10;;;18.90;99.90;;;;;;5007288;28;20201;-89
2022/06/16 00:49:11;;;;;;;6.60;4.70;;;18.90;99.90;;;;;;4991757;28;20214;-92
2022/06/16 00:51:52;;;;;;;5.30;4.90;;;18.90;99.90;;;;;;4995797;28;20166;-95
2022/06/16 00:54:28;;;;;;;5.63;4.87;;;18.80;99.90;;;;;;5017595;28;20161;-92
2022/06/16 00:57:01;;;;;;;6.03;5.37;;;18.70;99.90;;;;;;5017263;28;20224;-89
2022/06/16 00:59:27;;;;;;;5.10;4.70;;;18.70;99.90;;;;;;5003048;28;20228;-92
2022/06/16 01:01:53;;;;;;;6.00;5.30;;;18.70;99.90;;;;;;5007165;28;20174;-94
2022/06/16 01:06:45;;;;;;;5.50;5.00;;;18.70;99.90;;;;;;5168509;23;20229;-93
2022/06/16 01:09:16;;;;;;;6.90;5.00;;;18.60;99.90;;;;;;5046471;28;20186;-96
2022/06/16 01:15:45;;;;;;;5.07;4.37;;;18.60;99.90;;;;;;5015007;28;20188;-96
2022/06/16 01:18:51;;;;;;;5.47;4.90;;;18.60;99.90;;;;;;4979025;28;20181;-96
2022/06/16 01:21:58;;;;;;;6.73;5.73;;;18.50;99.90;;;;;;5019316;28;20272;-89
2022/06/16 01:24:33;;;;;;;5.50;5.10;;;18.60;99.90;;;;;;4970664;29;20190;-96
2022/06/16 01:27:13;;;;;;;5.23;4.83;;;18.60;99.90;;;;;;4954430;29;20226;-96
2022/06/16 01:30:03;;;;;;;5.43;4.93;;;18.60;99.90;;;;;;4951984;29;20211;-95
2022/06/16 01:32:58;;;;;;;5.60;5.17;;;18.60;99.90;;;;;;4967884;29;20175;-96
2022/06/16 01:35:40;;;;;;;5.60;5.20;;;18.60;99.90;;;;;;4968597;29;20214;-95
2022/06/16 01:38:28;;;;;;;5.67;5.27;;;18.60;99.90;;;;;;4965220;29;20163;-89
2022/06/16 01:41:09;;;;;;;6.00;5.50;;;18.60;99.90;;;;;;4960138;29;20231;-96
2022/06/16 01:43:42;;;;;;;6.10;5.60;;;18.50;99.90;;;;;;4977285;28;20187;-95
2022/06/16 01:46:19;;;;;;;5.90;5.40;;;18.50;99.90;;;;;;4979465;28;20193;-88
2022/06/16 01:48:50;;;;;;;5.63;5.10;;;18.50;99.90;;;;;;4959585;29;20183;-89
2022/06/16 01:51:40;;;;;;;5.73;5.23;;;18.40;99.90;;;;;;4965886;29;20267;-94
2022/06/16 01:54:12;;;;;;;6.27;5.43;;;18.40;99.90;;;;;;4958745;29;20190;-94
2022/06/16 01:56:44;;;;;;;5.90;5.20;;;18.30;99.90;;;;;;4957547;29;20171;-93
2022/06/16 01:59:15;;;;;;;5.57;5.17;;;18.20;99.90;;;;;;4966654;28;20292;-96
2022/06/16 02:01:47;;;;;;;5.67;5.20;;;18.30;99.90;;;;;;4998480;28;20166;-94
2022/06/16 02:04:22;;;;;;;6.13;5.53;;;18.30;99.90;;;;;;4981212;28;20635;-93
2022/06/16 02:06:53;;;;;;;6.13;5.60;;;18.20;99.90;;;;;;5003594;28;20180;-96
2022/06/16 02:09:27;;;;;;;7.13;5.63;;;18.00;99.90;;;;;;5001649;28;20161;-94
2022/06/16 02:11:55;;;;;;;8.63;5.87;;;18.10;99.90;;;;;;4934528;28;2041877;-88
2022/06/16 02:15:12;;;;;;;6.13;5.23;;;18.10;99.90;;;;;;4999335;28;20203;-89
2022/06/16 02:17:38;;;;;;;9.70;5.73;;;17.90;99.90;;;;;;5013681;28;20201;-95
2022/06/16 02:20:09;;;;;;;6.83;5.70;;;18.10;99.90;;;;;;5007704;28;20218;-91
2022/06/16 02:22:36;;;;;;;5.70;5.37;;;18.00;99.90;;;;;;4995095;28;20220;-91
2022/06/16 02:25:06;;;;;;;6.37;5.87;;;18.00;99.90;;;;;;4997438;28;20249;-92
2022/06/16 02:27:32;;;;;;;6.50;5.80;;;18.00;99.90;;;;;;4996900;28;20269;-89
2022/06/16 02:29:58;;;;;;;6.70;5.50;;;18.00;99.90;;;;;;5024221;28;20202;-91
2022/06/16 02:32:48;;;;;;;7.03;5.20;;;17.90;99.90;;;;;;5009183;28;20182;-95
2022/06/16 02:35:37;;;;;;;7.10;5.63;;;17.90;99.90;;;;;;5007356;28;20202;-94
2022/06/16 02:38:30;;;;;;;5.83;5.33;;;18.00;99.90;;;;;;5009493;28;20177;-95
2022/06/16 02:41:25;;;;;;;9.07;5.60;;;18.00;99.90;;;;;;5021077;23;20548;-89
2022/06/16 02:44:03;;;;;;;9.17;5.23;;;18.00;99.90;;;;;;5052504;28;20173;-91
2022/06/16 02:46:54;;;;;;;6.13;5.40;;;18.00;99.90;;;;;;5048418;28;20257;-88
2022/06/16 02:49:45;;;;;;;6.17;5.67;;;18.00;99.90;;;;;;5010674;28;20166;-92
2022/06/16 02:52:39;;;;;;;8.70;5.67;;;17.90;99.90;;;;;;5007200;28;20165;-93
2022/06/16 02:55:19;;;;;;;7.33;5.53;;;17.80;99.90;;;;;;5005942;28;20173;-96
2022/06/16 02:57:52;;;;;;;6.07;5.50;;;17.70;99.90;;;;;;4999945;28;20630;-91
2022/06/16 03:00:41;;;;;;;6.13;5.53;;;17.70;99.90;;;;;;4996855;28;20715;-94
2022/06/16 03:03:26;;;;;;;6.33;5.73;;;17.60;99.90;;;;;;4996357;28;20188;-96
2022/06/16 03:05:53;;;;;;;6.17;5.63;;;17.70;99.90;;;;;;5029648;28;20526;-94
2022/06/16 03:08:21;;;;;;;6.50;5.90;;;17.70;99.90;;;;;;4997401;28;20181;-96
2022/06/16 03:10:51;;;;;;;8.27;5.87;;;17.70;99.90;;;;;;4999584;28;20173;-93
2022/06/16 03:13:29;;;;;;;6.33;5.77;;;17.60;99.90;;;;;;4999360;28;20169;-95
2022/06/16 03:15:57;;;;;;;6.80;6.00;;;17.60;99.90;;;;;;4998911;28;20680;-95
2022/06/16 03:18:23;;;;;;;7.83;5.50;;;17.60;99.90;;;;;;5028507;28;20227;-95
2022/06/16 03:20:50;;;;;;;6.50;5.90;;;17.50;99.90;;;;;;4998332;28;20557;-95
2022/06/16 03:23:16;;;;;;;6.17;5.63;;;17.50;99.90;;;;;;4998193;28;20170;-93
2022/06/16 03:25:43;;;;;;;5.97;5.37;;;17.60;99.90;;;;;;4995597;28;20176;-96
2022/06/16 03:28:09;;;;;;;6.17;5.67;;;17.60;99.90;;;;;;4995877;28;20312;-94
2022/06/16 03:30:37;;;;;;;6.37;5.53;;;17.60;99.90;;;;;;4996438;28;20178;-96
2022/06/16 03:33:04;;;;;;;6.30;5.70;;;17.80;99.90;;;;;;4995751;28;20260;-96
2022/06/16 03:35:29;;;;;;;6.70;6.17;;;17.90;99.90;;;;;;4995186;28;20184;-91
2022/06/16 03:37:55;;;;;;;6.70;5.40;;;17.80;99.90;;;;;;4991044;28;20583;-92
2022/06/16 03:40:22;;;;;;;7.07;6.30;;;17.90;99.90;;;;;;4994561;28;20206;-91
2022/06/16 03:42:49;;;;;;;6.80;6.10;;;17.80;99.90;;;;;;4995311;28;20213;-93
2022/06/16 03:45:15;;;;;;;6.97;6.27;;;17.90;99.90;;;;;;4999774;28;20174;-95
2022/06/16 03:47:41;;;;;;;7.47;6.33;;;17.90;99.90;;;;;;5018234;28;20154;-90
2022/06/16 03:50:10;;;;;;;9.43;6.13;;;17.90;99.90;;;;;;5017692;28;20229;-89
2022/06/16 03:52:36;;;;;;;6.40;5.80;;;17.90;99.90;;;;;;4999834;28;20264;-96
2022/06/16 03:55:02;;;;;;;7.93;6.67;;;17.90;99.90;;;;;;5003771;28;20194;-90
2022/06/16 03:57:27;;;;;;;6.93;6.23;;;17.90;99.90;;;;;;5016103;28;20169;-87
2022/06/16 03:59:53;;;;;;;8.17;6.13;;;17.90;99.90;;;;;;5002736;28;20240;-92
2022/06/16 04:02:23;;;;;;;9.10;6.13;;;17.90;99.90;;;;;;4997431;28;20181;-90
2022/06/16 04:04:48;;;;;;;6.67;6.07;;;18.00;99.90;;;;;;4995085;28;20173;-94
2022/06/16 04:07:14;;;;;;;7.13;6.43;;;18.00;99.90;;;;;;4999023;28;20538;-95
2022/06/16 04:09:40;;;;;;;8.13;5.90;;;18.00;99.90;;;;;;4999922;28;20181;-94
2022/06/16 04:12:06;;;;;;;6.77;6.10;;;18.00;99.90;;;;;;4991558;28;20557;-96
2022/06/16 04:14:32;;;;;;;8.17;6.10;;;18.00;99.90;;;;;;5002141;28;20173;-96
2022/06/16 04:17:01;;;;;;;8.40;6.43;;;18.00;99.90;;;;;;5009341;28;20668;-94
2022/06/16 04:19:27;;;;;;;8.57;6.40;;;18.10;99.90;;;;;;4968307;28;20232;-96
2022/06/16 04:21:53;;;;;;;6.97;6.10;;;18.20;99.90;;;;;;5011159;28;20170;-90
2022/06/16 04:24:21;;;;;;;8.00;6.13;;;18.10;99.90;;;;;;5012068;28;20182;-95
2022/06/16 04:26:48;;;;;;;8.03;6.07;;;18.20;99.90;;;;;;5006254;28;20170;-95
2022/06/16 04:29:14;;;;;;;6.30;5.73;;;18.20;99.90;;;;;;5001252;28;20161;-95
2022/06/16 04:31:40;;;;;;;7.17;6.23;;;18.30;99.90;;;;;;5013224;28;20250;-94
2022/06/16 04:34:09;;;;;;;6.77;6.17;;;18.30;99.90;;;;;;5017128;28;20193;-85
2022/06/16 04:36:35;;;;;;;6.77;6.10;;;18.40;99.90;;;;;;5004818;28;20235;-96
2022/06/16 04:39:03;;;;;;;8.03;6.20;;;18.40;99.90;;;;;;5000024;28;20184;-96
2022/06/16 04:41:31;;;;;;;7.90;6.10;;;18.40;99.90;;;;;;5007521;28;20233;-96
2022/06/16 04:44:17;;;;;;;8.10;6.30;;;18.50;99.90;;;;;;5011706;28;20177;-96
2022/06/16 04:46:44;;;;;;;7.20;6.50;;;18.60;99.90;;;;;;5069933;23;20154;-89
2022/06/16 04:49:11;;;;;;;6.80;6.10;;;18.70;99.90;;;;;;5010629;28;20239;-96
2022/06/16 04:51:37;;;;;;;7.47;6.53;;;18.70;99.90;;;;;;5009090;28;20181;-95
2022/06/16 04:54:23;;;;;;;7.57;6.77;;;18.80;99.90;;;;;;5004493;28;20166;-95
2022/06/16 04:56:49;;;;;;;11.33;7.30;;;18.80;99.90;;;;;;5003930;28;20197;-96
2022/06/16 04:59:14;;;;;;;7.67;6.70;;;18.80;99.90;;;;;;5004578;28;20202;-96
2022/06/16 05:01:41;;;;;;;7.00;6.40;;;18.80;99.90;;;;;;4983656;28;20188;-95
2022/06/16 05:04:07;;;;;;;9.73;7.07;;;18.80;99.90;;;;;;5001735;28;20189;-94
2022/06/16 05:06:32;;;;;;;8.80;6.07;;;18.90;99.90;;;;;;4997947;28;20634;-91
2022/06/16 05:08:58;;;;;;;8.37;6.10;;;19.00;99.90;;;;;;4996826;28;20281;-95
2022/06/16 05:11:24;;;;;;;7.40;6.57;;;19.10;99.90;;;;;;4980655;28;20170;-94
2022/06/16 05:13:50;;;;;;;10.40;6.90;;;19.10;99.90;;;;;;4998155;28;20634;-96
2022/06/16 05:16:15;;;;;;;8.50;6.97;;;19.20;99.90;;;;;;4997756;28;20170;-94
2022/06/16 05:18:41;;;;;;;13.13;7.77;;;19.40;99.90;;;;;;5013396;28;20178;-95
2022/06/16 05:21:10;;;;;;;7.97;7.20;;;19.50;99.90;;;;;;4998122;28;20241;-96
2022/06/16 05:23:37;;;;;;;9.40;7.13;;;19.60;99.90;;;;;;4998714;28;20185;-96
2022/06/16 05:26:04;;;;;;;10.77;7.07;;;19.70;99.90;;;;;;4998127;28;20194;-94
2022/06/16 05:28:31;;;;;;;9.40;7.10;;;19.80;99.90;;;;;;5012883;28;20709;-93
2022/06/16 05:30:57;;;;;;;7.33;6.80;;;19.80;99.90;;;;;;5008350;28;20201;-95
2022/06/16 05:33:23;;;;;;;8.77;6.87;;;19.90;99.90;;;;;;5018602;28;20182;-93
2022/06/16 05:36:00;;;;;;;9.13;7.13;;;19.90;99.90;;;;;;5002504;28;20173;-95
2022/06/16 05:38:26;;;;;;;11.30;7.40;;;20.10;99.90;;;;;;5018044;28;20172;-91
2022/06/16 05:41:04;;;;;;;10.40;7.80;;;20.20;99.90;;;;;;5020902;28;20261;-91
2022/06/16 05:43:30;;;;;;;7.77;6.30;;;20.30;99.90;;;;;;5017650;28;20142;-92
2022/06/16 05:45:56;;;;;;;8.00;7.20;;;20.40;99.90;;;;;;4999252;28;20181;-96
2022/06/16 05:48:22;;;;;;;9.90;7.33;;;20.50;99.90;;;;;;4999508;28;20225;-96
2022/06/16 05:50:48;;;;;;;6.87;6.20;;;20.60;99.90;;;;;;5014508;28;20181;-92
2022/06/16 05:53:19;;;;;;;8.40;7.00;;;20.70;99.90;;;;;;5018376;28;20209;-87
2022/06/16 05:55:46;;;;;;;8.80;7.10;;;20.70;99.90;;;;;;5001255;28;20212;-89
2022/06/16 05:58:12;;;;;;;9.93;7.47;;;20.90;99.90;;;;;;5009501;28;20174;-91
2022/06/16 06:00:40;;;;;;;8.57;6.40;;;21.00;99.90;;;;;;4993792;23;20231;-96
2022/06/16 06:17:48;;;;;;;7.50;6.40;;;21.60;99.90;;;;;;5130758;23;20268;-88
2022/06/16 06:20:20;;;;;;;7.57;6.53;;;21.60;99.90;;;;;;5118929;23;20272;-90
2022/06/16 06:22:58;;;;;;;9.30;6.07;;;21.70;99.90;;;;;;5093560;23;20219;-88
2022/06/16 06:25:27;;;;;;;8.50;6.20;;;21.80;99.90;;;;;;5208747;23;20293;-89
2022/06/16 06:30:30;;;;;;;7.33;6.63;;;21.90;99.90;;;;;;5083795;23;20239;-94
2022/06/16 06:40:42;;;;;;;10.67;6.77;;;22.20;99.60;;;;;;5043948;23;20248;-88
2022/06/16 06:43:22;;;;;;;12.80;6.47;;;22.20;99.50;;;;;;5120414;23;20229;-88
2022/06/16 06:46:11;;;;;;;6.70;6.10;;;22.30;99.70;;;;;;5218081;23;20209;-89
2022/06/16 06:51:13;;;;;;;7.25;5.65;;;22.40;99.80;;;;;;2228291;23;20261;-88
2022/06/16 06:56:36;;;;;;;7.67;6.97;;;22.50;99.70;;;;;;5005240;23;20261;-96
2022/06/16 06:59:23;;;;;;;8.57;5.70;;;22.60;99.50;;;;;;4995817;28;20191;-89
2022/06/16 07:02:25;;;;;;;6.33;5.87;;;22.70;99.30;;;;;;4995876;28;20190;-92
2022/06/16 07:05:11;;;;;;;6.03;5.40;;;22.80;99.00;;;;;;5092858;23;20328;-94
2022/06/16 07:07:58;;;;;;;6.40;5.82;;;22.80;99.10;;;;;;5113532;23;20217;-90
2022/06/16 07:10:24;;;;;;;5.97;5.40;;;22.90;99.00;;;;;;5015788;28;20169;-88
2022/06/16 07:12:51;;;;;;;5.53;5.00;;;22.90;99.00;;;;;;4999104;28;20181;-88
2022/06/16 07:15:24;;;;;;;5.55;5.05;;;23.00;99.00;;;;;;5014274;28;20181;-90
2022/06/16 07:18:08;;;;;;;5.50;5.00;;;23.10;98.80;;;;;;5025052;23;20257;-89
2022/06/16 07:20:58;;;;;;;5.82;5.32;;;23.10;98.80;;;;;;5015274;28;20269;-90
2022/06/16 07:27:08;;;;;;;6.07;5.57;;;23.20;98.60;;;;;;5046412;23;20256;-88
2022/06/16 07:30:13;;;;;;;5.60;5.00;;;23.30;98.60;;;;;;5038827;23;20224;-88
2022/06/16 07:32:47;;;;;;;5.70;5.20;;;23.40;98.90;;;;;;5033326;23;20221;-89
2022/06/16 07:38:19;;;;;;;5.05;4.57;;;23.60;98.80;;;;;;5398176;23;20236;-87
2022/06/16 07:43:59;;;;;;;5.55;5.00;;;23.70;98.10;;;;;;5409292;23;20272;-89
2022/06/16 07:46:25;;;;;;;5.47;5.03;;;23.70;97.90;;;;;;4998068;28;20170;-89
2022/06/16 07:48:55;;;;;;;6.55;5.13;;;23.70;98.20;;;;;;4998894;28;20172;-92
2022/06/16 07:54:12;;;;;;;5.40;5.00;;;23.90;98.10;;;;;;4984242;28;20250;-89
2022/06/16 07:57:01;;;;;;;8.77;4.90;;;23.90;98.20;;;;;;4980083;28;20155;-89
2022/06/16 08:01:59;;;;;;;5.00;4.50;;;24.20;97.50;;;;;;4956707;29;20232;-88
2022/06/16 08:07:47;;;;;;;5.95;5.43;;;24.40;97.20;;;;;;4996588;23;20255;-93
2022/06/16 08:10:17;;;;;;;5.25;4.72;;;24.50;96.60;;;;;;4959898;29;20210;-89
2022/06/16 08:12:44;;;;;;;5.25;4.68;;;24.50;96.50;;;;;;4982113;23;20241;-89
2022/06/16 08:15:46;;;;;;;5.43;5.00;;;24.50;96.70;;;;;;5205465;23;20402;-88
2022/06/16 08:18:17;;;;;;;8.93;4.57;;;24.50;96.70;;;;;;5083149;23;20213;-89
2022/06/16 08:20:45;;;;;;;6.65;4.70;;;24.60;96.60;;;;;;5193821;23;20272;-89
2022/06/16 08:23:14;;;;;;;5.00;4.55;;;24.70;96.60;;;;;;4988288;28;20229;-89
2022/06/16 08:25:44;;;;;;;4.70;4.40;;;24.90;96.20;;;;;;5005623;28;20204;-89
2022/06/16 08:28:13;;;;;;;5.03;4.55;;;24.90;96.30;;;;;;5004403;28;20176;-90
2022/06/16 08:31:10;;;;;;;4.68;4.38;;;25.10;96.00;;;;;;5290846;23;20238;-89
2022/06/16 08:37:41;;;;;;;4.80;4.28;;;25.40;95.50;;;;;;5203256;23;20252;-88
2022/06/16 08:41:15;;;;;;;4.80;4.40;;;25.50;94.90;;;;;;5177526;23;20256;-88
2022/06/16 08:46:18;;;;;;;4.65;4.32;;;25.50;95.60;;;;;;5155738;23;20242;-96
2022/06/16 08:49:09;;;;;;;4.60;4.20;;;25.50;95.60;;;;;;5108683;23;20268;-88
2022/06/16 08:52:12;;;;;;;4.95;4.55;;;25.30;95.00;;;;;;4980218;28;20271;-90
2022/06/16 08:55:05;;;;;;;4.35;4.05;;;25.30;96.00;;;;;;4957962;29;20280;-88
2022/06/16 08:57:46;;;;;;;8.13;4.53;;;25.20;95.40;;;;;;4951670;29;20206;-89
2022/06/16 09:00:18;;;;;;;5.70;4.53;;;25.20;95.70;;;;;;4975159;29;20238;-90
2022/06/16 09:03:37;;;;;;;6.43;4.32;;;25.30;96.60;;;;;;4978874;29;20167;-89
2022/06/16 09:06:37;;;;;;;4.93;4.32;;;25.30;96.50;;;;;;4920211;29;20203;-90
2022/06/16 09:10:14;;;;;;;4.85;4.45;;;25.30;96.80;;;;;;4915758;29;20189;-93
2022/06/16 09:12:16;;;;;;;5.47;4.75;;;25.40;96.70;;;;;;4966814;29;20223;-95
2022/06/16 09:15:20;;;;;;;4.70;4.43;;;25.40;95.90;;;;;;4963241;29;20230;-96
2022/06/16 09:18:26;;;;;;;5.03;4.25;;;25.50;97.70;;;;;;4960560;29;20186;-94
2022/06/16 09:21:03;;;;;;;4.97;4.53;;;25.60;97.40;;;;;;4965105;29;20261;-96
2022/06/16 09:23:49;;;;;;;4.82;4.47;;;25.70;96.80;;;;;;4983505;28;20253;-93
2022/06/16 09:26:44;;;;;;;4.78;4.30;;;25.80;96.10;;;;;;5006823;28;20170;-90
2022/06/16 09:29:24;;;;;;;5.90;4.40;;;25.90;95.80;;;;;;4993345;28;20185;-88
2022/06/16 09:31:54;;;;;;;5.72;4.80;;;25.90;95.80;;;;;;4996626;28;20173;-87
2022/06/16 09:34:46;;;;;;;5.63;4.28;;;25.90;96.20;;;;;;4991042;28;20269;-90
2022/06/16 09:37:22;;;;;;;5.22;4.72;;;25.90;95.60;;;;;;4961811;28;20195;-87
2022/06/16 09:40:02;;;;;;;4.88;4.43;;;25.80;95.90;;;;;;4969600;28;20292;-92
2022/06/16 09:42:53;;;;;;;5.03;4.53;;;25.90;95.90;;;;;;4971837;28;20182;-88
2022/06/16 09:45:33;;;;;;;6.45;4.78;;;26.00;96.10;;;;;;4960757;28;20596;-92
2022/06/16 09:48:28;;;;;;;5.18;4.40;;;26.10;95.70;;;;;;4959904;28;20210;-93
2022/06/16 09:51:14;;;;;;;6.38;4.40;;;26.10;96.10;;;;;;4961320;28;20746;-93
2022/06/16 09:54:01;;;;;;;5.78;5.25;;;26.10;97.00;;;;;;4940698;29;20531;-92
2022/06/16 09:56:33;;;;;;;5.13;4.60;;;26.20;96.90;;;;;;4941852;29;20207;-90
2022/06/16 09:59:16;;;;;;;6.25;5.60;;;26.30;96.80;;;;;;4953508;29;20151;-88
2022/06/16 10:01:54;;;;;;;6.72;4.78;;;26.40;96.80;;;;;;4963746;29;20199;-87
2022/06/16 10:04:20;;;;;;;5.22;4.50;;;26.50;96.70;;;;;;4952458;29;20168;-88
2022/06/16 10:06:58;;;;;;;5.35;4.72;;;26.50;96.90;;;;;;4958714;29;20190;-93
2022/06/16 10:09:33;;;;;;;5.82;5.32;;;26.60;97.10;;;;;;4957836;29;20194;-90
2022/06/16 10:12:02;;;;;;;5.20;4.65;;;26.60;96.50;;;;;;4957380;29;20167;-94
2022/06/16 10:14:41;;;;;;;4.88;4.57;;;26.70;96.30;;;;;;4940511;29;20182;-94
2022/06/16 10:17:17;;;;;;;5.10;4.70;;;26.70;97.10;;;;;;4957670;29;20174;-91
2022/06/16 10:19:45;;;;;;;5.15;4.50;;;26.80;97.00;;;;;;4944623;29;20280;-88
2022/06/16 10:22:14;;;;;;;6.05;4.50;;;26.80;96.90;;;;;;4956460;29;20174;-90
2022/06/16 10:24:58;;;;;;;5.00;4.68;;;26.80;95.50;;;;;;4958482;29;20187;-90
2022/06/16 10:27:34;;;;;;;4.63;4.22;;;26.80;95.10;;;;;;4958035;29;20175;-89
2022/06/16 10:30:01;;;;;;;5.18;4.78;;;26.90;95.10;;;;;;4946355;29;20186;-88
2022/06/16 10:32:38;;;;;;;6.65;4.70;;;26.80;95.30;;;;;;4967794;28;20202;-91
2022/06/16 10:35:06;;;;;;;4.70;4.40;;;26.90;95.40;;;;;;4970513;28;20162;-92
2022/06/16 10:37:32;;;;;;;5.32;4.82;;;26.90;95.10;;;;;;4965887;28;20561;-90
2022/06/16 10:40:06;;;;;;;5.00;4.60;;;26.80;95.00;;;;;;4959198;28;20301;-92
2022/06/16 10:42:54;;;;;;;4.75;4.45;;;26.90;95.50;;;;;;4976161;28;20170;-91
2022/06/16 10:45:31;;;;;;;4.95;4.55;;;27.00;95.90;;;;;;4963714;28;20217;-92
2022/06/16 10:48:17;;;;;;;5.38;4.80;;;27.10;95.60;;;;;;4980392;28;20162;-89
2022/06/16 10:50:48;;;;;;;6.25;4.72;;;27.30;95.30;;;;;;4981710;28;20551;-93
2022/06/16 10:53:34;;;;;;;6.43;5.15;;;27.50;95.60;;;;;;4991301;28;20209;-91
2022/06/16 10:56:18;;;;;;;7.28;5.00;;;27.80;95.60;;;;;;4975872;28;20178;-94
2022/06/16 10:59:18;;;;;;;5.93;4.88;;;28.00;94.80;;;;;;4979063;28;20178;-95
2022/06/16 11:01:58;;;;;;;5.35;4.85;;;28.10;94.10;;;;;;4978777;28;20218;-95
2022/06/16 11:04:34;;;;;;;5.00;4.60;;;28.00;94.20;;;;;;4971634;28;20190;-96
2022/06/16 11:07:01;;;;;;;7.27;4.90;;;27.70;95.00;;;;;;4980834;28;20426;-96
2022/06/16 11:09:31;;;;;;;5.75;5.25;;;27.40;94.80;;;;;;4981381;28;20175;-96
2022/06/16 11:12:19;;;;;;;6.93;5.30;;;27.00;94.80;;;;;;4979369;28;20198;-96
2022/06/16 11:14:55;;;;;;;5.82;5.40;;;26.80;95.30;;;;;;4976032;28;20194;-95
2022/06/16 11:17:35;;;;;;;8.73;7.68;;;26.60;95.90;;;;;;4994724;28;20167;-96
2022/06/16 11:20:12;;;;;;;7.05;5.20;;;26.40;96.30;;;;;;4977083;28;20265;-93
2022/06/16 11:22:42;;;;;;;8.32;6.03;;;26.20;96.70;;;;;;4958304;28;20178;-93
2022/06/16 11:25:37;;;;;;;5.32;4.82;;;26.10;97.30;;;;;;4975535;28;20194;-89
2022/06/16 11:28:12;;;;;;;10.65;8.52;;;25.90;96.60;;;;;;4990657;28;20179;-95
2022/06/16 11:30:41;;;;;;;7.65;7.03;;;25.80;97.10;;;;;;4975912;28;20173;-94
2022/06/16 11:34:06;;;;;;;6.63;6.07;;;25.70;98.50;;;;;;4976710;28;20262;-93
2022/06/16 11:36:30;;;;;;;7.40;6.10;;;25.60;99.60;;;;;;4975733;28;20193;-93
2022/06/16 11:39:14;;;;;;;6.38;5.78;;;25.40;99.90;;;;;;4975713;28;20246;-95
2022/06/16 11:41:46;;;;;;;7.80;6.13;;;25.20;99.90;;;;;;4974388;28;20186;-89
2022/06/16 11:44:20;;;;;;;11.35;7.28;;;25.10;99.90;;;;;;4975588;28;20182;-96
2022/06/16 11:46:59;;;;;;;12.02;7.78;;;25.10;99.90;;;;;;4998854;28;20177;-96
2022/06/16 11:49:36;;;;;;;11.18;7.78;;;25.00;99.90;;;;;;4983119;28;20205;-96
2022/06/16 11:52:08;;;;;;;9.40;8.15;;;24.90;99.90;;;;;;4998056;28;20261;-96
2022/06/16 11:54:45;;;;;;;9.88;7.68;;;24.70;99.90;;;;;;5001329;28;20161;-96
2022/06/16 11:57:14;;;;;;;9.20;7.90;;;24.60;99.90;;;;;;4996160;28;20170;-96
2022/06/16 12:00:31;;;;;;;7.65;6.32;;;24.60;99.90;;;;;;4995742;28;20620;-96
2022/06/16 12:03:15;;;;;;;10.05;6.50;;;24.50;99.90;;;;;;4957496;28;20654;-96
2022/06/16 12:06:16;;;;;;;8.23;7.05;;;24.20;99.90;;;;;;5007812;28;20154;-88
2022/06/16 12:08:52;;;;;;;6.50;5.80;;;24.10;99.90;;;;;;4992322;28;20181;-96
2022/06/16 12:11:36;;;;;;;6.88;6.25;;;24.10;99.90;;;;;;4997191;28;20226;-96
2022/06/16 12:14:02;;;;;;;7.53;6.45;;;24.30;99.90;;;;;;4997191;28;20170;-95
2022/06/16 12:16:33;;;;;;;7.63;6.90;;;24.50;99.90;;;;;;4995752;28;20673;-94
2022/06/16 12:19:17;;;;;;;7.07;6.47;;;24.40;99.90;;;;;;4995942;28;20166;-96
2022/06/16 12:21:52;;;;;;;7.18;6.55;;;24.40;99.90;;;;;;4995774;28;20170;-96
2022/06/16 12:24:56;;;;;;;7.47;6.85;;;24.40;99.90;;;;;;4995858;28;20166;-95
2022/06/16 12:27:54;;;;;;;7.28;6.57;;;24.50;99.90;;;;;;4979793;28;20188;-93
2022/06/16 12:30:55;;;;;;;7.60;6.90;;;24.50;99.90;;;;;;5007979;28;20185;-93
2022/06/16 12:33:27;;;;;;;7.45;6.43;;;24.60;99.90;;;;;;4995003;28;20189;-87
2022/06/16 12:36:06;;;;;;;7.07;6.35;;;24.50;99.90;;;;;;5000666;28;20186;-95
2022/06/16 12:38:40;;;;;;;6.85;5.72;;;24.40;99.90;;;;;;4996349;28;20169;-94
2022/06/16 12:41:10;;;;;;;6.43;5.93;;;24.40;99.90;;;;;;5001799;28;20205;-94
2022/06/16 12:43:45;;;;;;;5.53;5.03;;;24.30;99.90;;;;;;4998136;28;20170;-96
2022/06/16 12:46:24;;;;;;;6.88;5.30;;;24.20;99.90;;;;;;5002031;28;20292;-94
2022/06/16 12:49:08;;;;;;;6.18;5.57;;;24.20;99.90;;;;;;4982202;28;20174;-96
2022/06/16 12:51:44;;;;;;;6.85;5.10;;;23.90;99.90;;;;;;4980211;28;20229;-95
2022/06/16 12:54:21;;;;;;;7.45;5.60;;;23.80;99.90;;;;;;4997607;28;20212;-95
2022/06/16 12:57:11;;;;;;;7.97;6.22;;;23.70;99.90;;;;;;4996727;28;20164;-94
2022/06/16 13:00:03;;;;;;;6.78;6.07;;;23.60;99.90;;;;;;4994234;28;20202;-90
2022/06/16 13:02:51;;;;;;;6.63;4.63;;;23.30;99.90;;;;;;4990377;28;20186;-94
2022/06/16 13:05:20;;;;;;;6.73;3.73;;;23.20;99.90;;;;;;4996962;28;20182;-96
2022/06/16 13:07:49;;;;;;;5.40;3.30;;;23.00;99.90;;;;;;4997801;28;20622;-90
2022/06/16 13:10:16;;;;;;;3.30;3.00;;;22.90;99.90;;;;;;4998498;28;20182;-93
2022/06/16 13:12:54;;;;;;;4.40;3.47;;;22.80;99.90;;;;;;5011605;28;20178;-92
2022/06/16 13:15:30;;;;;;;3.93;3.40;;;22.80;99.90;;;;;;5019756;28;20170;-91
2022/06/16 13:18:20;;;;;;;4.70;3.30;;;22.80;99.90;;;;;;4981929;28;20166;-89
2022/06/16 13:20:52;;;;;;;4.20;3.40;;;22.80;99.90;;;;;;4998634;28;20194;-94
2022/06/16 13:23:33;;;;;;;5.70;3.30;;;22.80;99.90;;;;;;4997872;28;20166;-92
2022/06/16 13:26:24;;;;;;;3.40;3.10;;;22.90;99.90;;;;;;4997306;28;20159;-93
2022/06/16 13:29:09;;;;;;;3.33;3.03;;;23.00;99.90;;;;;;4996973;28;20169;-92
2022/06/16 13:31:43;;;;;;;3.55;2.70;;;23.10;99.90;;;;;;4979401;28;20830;-91
2022/06/16 13:34:18;;;;;;;3.73;3.07;;;23.20;99.90;;;;;;4997338;28;20169;-93
2022/06/16 13:36:43;;;;;;;3.70;3.40;;;23.20;99.90;;;;;;4980423;28;20236;-95
2022/06/16 13:39:29;;;;;;;4.53;3.27;;;23.30;99.90;;;;;;4986685;28;20166;-92
2022/06/16 13:42:12;;;;;;;3.53;3.00;;;23.40;99.90;;;;;;4998570;28;20707;-93
2022/06/16 13:45:10;;;;;;;3.47;3.28;;;23.40;99.90;;;;;;4985972;28;20184;-93
2022/06/16 13:47:38;;;;;;;3.35;3.13;;;23.60;99.90;;;;;;4999582;28;20213;-93
2022/06/16 13:50:10;;;;;;;3.25;2.95;;;23.90;99.90;;;;;;5005023;28;20221;-95
2022/06/16 13:52:42;;;;;;;3.40;3.10;;;24.10;99.90;;;;;;5000230;28;20162;-94
2022/06/16 13:55:24;;;;;;;2.92;2.83;;;24.20;99.90;;;;;;4997604;28;20802;-93
2022/06/16 13:58:09;;;;;;;3.60;3.15;;;24.10;99.90;;;;;;4997358;28;20173;-95
2022/06/16 14:00:36;;;;;;;3.83;3.53;;;23.90;99.90;;;;;;4979844;28;20206;-92
2022/06/16 14:03:04;;;;;;;4.00;3.63;;;23.80;99.90;;;;;;4978646;28;20173;-95
2022/06/16 14:05:34;;;;;;;5.15;3.80;;;23.70;99.90;;;;;;4996666;28;20174;-95
2022/06/16 14:08:07;;;;;;;3.42;3.20;;;23.50;99.90;;;;;;4980585;28;20565;-91
2022/06/16 14:10:43;;;;;;;4.65;3.60;;;23.40;99.90;;;;;;5007480;28;20173;-92
2022/06/16 14:13:17;;;;;;;4.20;3.90;;;23.30;99.90;;;;;;5002661;28;20233;-91
2022/06/16 14:16:01;;;;;;;4.78;3.63;;;23.20;99.90;;;;;;5018423;28;20170;-91
2022/06/16 14:18:55;;;;;;;4.10;3.70;;;23.10;99.90;;;;;;4998585;28;20637;-96
2022/06/16 14:21:29;;;;;;;3.90;3.50;;;23.00;99.90;;;;;;5004075;28;20669;-96
2022/06/16 14:23:58;;;;;;;3.25;3.05;;;22.90;99.90;;;;;;4997459;28;20170;-96
2022/06/16 14:26:28;;;;;;;3.63;3.33;;;22.80;99.90;;;;;;4979760;28;20640;-95
2022/06/16 14:28:59;;;;;;;4.32;3.10;;;22.80;99.90;;;;;;4997089;28;20165;-91
2022/06/16 14:31:29;;;;;;;3.38;3.17;;;22.70;99.90;;;;;;4996545;28;20164;-92
2022/06/16 14:34:09;;;;;;;3.38;3.17;;;22.70;99.90;;;;;;4997642;28;20170;-95